sensor_id;sensor_type;location;lat;lon;timestamp;pressure;altitude;pressure_sealevel;temperature;humidity
41264;BME280;26998;48.714;9.414;2023-04-27T00:01:13;99316.63;;;6.56;100.00
41264;BME280;26998;48.714;9.414;2023-04-27T00:03:40;99310.25;;;6.40;100.00
41264;BME280;26998;48.714;9.414;2023-04-27T00:06:08;99322.84;;;6.38;100.00
41264;BME280;26998;48.714;9.414;2023-04-27T00:08:34;99331.13;;;6.35;100.00
41264;BME280;26998;48.714;9.414;2023-04-27T00:11:01;99338.28;;;6.35;100.00
41264;BME280;26998;48.714;9.414;2023-04-27T00:13:27;99343.44;;;6.36;100.00
41264;BME280;26998;48.714;9.414;2023-04-27T00:15:54;99355.66;;;6.29;100.00
41264;BME280;26998;48.714;9.414;2023-04-27T00:18:21;99348.31;;;6.23;100.00
41264;BME280;26998;48.714;9.414;2023-04-27T00:20:47;99367.09;;;6.21;100.00
41264;BME280;26998;48.714;9.414;2023-04-27T00:23:14;99371.25;;;6.24;100.00
41264;BME280;26998;48.714;9.414;2023-04-27T00:25:40;99367.59;;;6.25;100.00
41264;BME280;26998;48.714;9.414;2023-04-27T00:28:06;99364.38;;;6.13;100.00
41264;BME280;26998;48.714;9.414;2023-04-27T00:30:34;99375.28;;;6.10;100.00
41264;BME280;26998;48.714;9.414;2023-04-27T00:33:01;99382.22;;;6.03;100.00
41264;BME280;26998;48.714;9.414;2023-04-27T00:35:28;99389.66;;;5.99;100.00
41264;BME280;26998;48.714;9.414;2023-04-27T00:37:55;99392.31;;;5.99;100.00
41264;BME280;26998;48.714;9.414;2023-04-27T00:40:21;99393.66;;;6.04;100.00
41264;BME280;26998;48.714;9.414;2023-04-27T00:42:48;99392.91;;;6.11;100.00
41264;BME280;26998;48.714;9.414;2023-04-27T00:45:14;99383.50;;;6.17;100.00
41264;BME280;26998;48.714;9.414;2023-04-27T00:47:41;99376.66;;;6.14;100.00
41264;BME280;26998;48.714;9.414;2023-04-27T00:50:08;99374.78;;;6.07;100.00
41264;BME280;26998;48.714;9.414;2023-04-27T00:52:35;99369.59;;;5.97;100.00
41264;BME280;26998;48.714;9.414;2023-04-27T00:55:03;99373.38;;;5.94;100.00
41264;BME280;26998;48.714;9.414;2023-04-27T00:57:30;99376.03;;;5.94;100.00
41264;BME280;26998;48.714;9.414;2023-04-27T00:59:59;99362.75;;;5.94;100.00
41264;BME280;26998;48.714;9.414;2023-04-27T01:02:26;99372.69;;;5.92;100.00
41264;BME280;26998;48.714;9.414;2023-04-27T01:04:54;99373.31;;;5.86;100.00
41264;BME280;26998;48.714;9.414;2023-04-27T01:07:24;99389.16;;;5.78;100.00
41264;BME280;26998;48.714;9.414;2023-04-27T01:09:51;99420.97;;;5.78;100.00
41264;BME280;26998;48.714;9.414;2023-04-27T01:12:18;99439.16;;;5.73;100.00
41264;BME280;26998;48.714;9.414;2023-04-27T01:14:44;99464.72;;;5.74;100.00
41264;BME280;26998;48.714;9.414;2023-04-27T01:17:11;99489.25;;;5.76;100.00
41264;BME280;26998;48.714;9.414;2023-04-27T01:19:38;99496.97;;;5.69;100.00
41264;BME280;26998;48.714;9.414;2023-04-27T01:22:04;99512.47;;;5.74;100.00
41264;BME280;26998;48.714;9.414;2023-04-27T01:24:32;99512.97;;;5.60;100.00
41264;BME280;26998;48.714;9.414;2023-04-27T01:26:58;99531.16;;;5.54;100.00
41264;BME280;26998;48.714;9.414;2023-04-27T01:29:25;99548.84;;;5.54;100.00
41264;BME280;26998;48.714;9.414;2023-04-27T01:31:51;99565.94;;;5.51;100.00
41264;BME280;26998;48.714;9.414;2023-04-27T01:34:18;99577.31;;;5.62;100.00
41264;BME280;26998;48.714;9.414;2023-04-27T01:36:45;99573.66;;;5.63;100.00
41264;BME280;26998;48.714;9.414;2023-04-27T01:39:11;99561.44;;;5.52;100.00
41264;BME280;26998;48.714;9.414;2023-04-27T01:41:38;99562.03;;;5.46;100.00
41264;BME280;26998;48.714;9.414;2023-04-27T01:44:05;99560.34;;;5.45;100.00
41264;BME280;26998;48.714;9.414;2023-04-27T01:46:32;99562.75;;;5.38;100.00
41264;BME280;26998;48.714;9.414;2023-04-27T01:48:58;99548.84;;;5.36;100.00
41264;BME280;26998;48.714;9.414;2023-04-27T01:51:24;99560.31;;;5.27;100.00
41264;BME280;26998;48.714;9.414;2023-04-27T01:53:51;99575.00;;;5.21;100.00
41264;BME280;26998;48.714;9.414;2023-04-27T01:56:17;99575.00;;;5.21;100.00
41264;BME280;26998;48.714;9.414;2023-04-27T01:58:44;99587.78;;;5.26;100.00
41264;BME280;26998;48.714;9.414;2023-04-27T02:01:10;99591.13;;;5.28;100.00
41264;BME280;26998;48.714;9.414;2023-04-27T02:03:37;99589.47;;;5.27;100.00
41264;BME280;26998;48.714;9.414;2023-04-27T02:06:04;99593.78;;;5.28;100.00
41264;BME280;26998;48.714;9.414;2023-04-27T02:08:30;99589.59;;;5.25;100.00
41264;BME280;26998;48.714;9.414;2023-04-27T02:10:57;99594.25;;;5.23;100.00
41264;BME280;26998;48.714;9.414;2023-04-27T02:13:23;99589.06;;;5.22;100.00
41264;BME280;26998;48.714;9.414;2023-04-27T02:15:50;99581.94;;;5.22;100.00
41264;BME280;26998;48.714;9.414;2023-04-27T02:18:17;99586.41;;;5.22;100.00
41264;BME280;26998;48.714;9.414;2023-04-27T02:20:43;99571.63;;;5.19;100.00
41264;BME280;26998;48.714;9.414;2023-04-27T02:23:10;99568.31;;;5.17;100.00
41264;BME280;26998;48.714;9.414;2023-04-27T02:25:53;99572.75;;;5.17;100.00
41264;BME280;26998;48.714;9.414;2023-04-27T02:28:30;99562.75;;;5.10;100.00
41264;BME280;26998;48.714;9.414;2023-04-27T02:30:57;99589.25;;;5.10;100.00
41264;BME280;26998;48.714;9.414;2023-04-27T02:33:24;99613.53;;;5.06;100.00
41264;BME280;26998;48.714;9.414;2023-04-27T02:35:50;99637.25;;;4.98;100.00
41264;BME280;26998;48.714;9.414;2023-04-27T02:38:16;99671.72;;;4.88;100.00
41264;BME280;26998;48.714;9.414;2023-04-27T02:40:43;99709.22;;;4.83;100.00
41264;BME280;26998;48.714;9.414;2023-04-27T02:43:13;99729.59;;;4.83;100.00
41264;BME280;26998;48.714;9.414;2023-04-27T02:45:39;99739.75;;;4.88;100.00
41264;BME280;26998;48.714;9.414;2023-04-27T02:48:05;99735.44;;;4.86;100.00
41264;BME280;26998;48.714;9.414;2023-04-27T02:50:32;99727.31;;;4.88;100.00
41264;BME280;26998;48.714;9.414;2023-04-27T02:52:58;99735.69;;;4.93;100.00
41264;BME280;26998;48.714;9.414;2023-04-27T02:55:25;99728.44;;;4.95;100.00
41264;BME280;26998;48.714;9.414;2023-04-27T02:57:51;99703.22;;;4.91;100.00
41264;BME280;26998;48.714;9.414;2023-04-27T03:00:18;99701.94;;;4.95;100.00
41264;BME280;26998;48.714;9.414;2023-04-27T03:02:44;99688.28;;;5.00;100.00
41264;BME280;26998;48.714;9.414;2023-04-27T03:05:11;99683.69;;;5.02;100.00
41264;BME280;26998;48.714;9.414;2023-04-27T03:07:37;99677.94;;;5.06;100.00
41264;BME280;26998;48.714;9.414;2023-04-27T03:10:04;99671.25;;;5.12;100.00
41264;BME280;26998;48.714;9.414;2023-04-27T03:12:31;99657.56;;;5.17;100.00
41264;BME280;26998;48.714;9.414;2023-04-27T03:14:57;99657.44;;;5.18;100.00
41264;BME280;26998;48.714;9.414;2023-04-27T03:17:24;99655.63;;;5.19;100.00
41264;BME280;26998;48.714;9.414;2023-04-27T03:19:50;99653.66;;;5.21;100.00
41264;BME280;26998;48.714;9.414;2023-04-27T03:22:17;99643.19;;;5.19;100.00
41264;BME280;26998;48.714;9.414;2023-04-27T03:24:43;99605.25;;;5.19;100.00
41264;BME280;26998;48.714;9.414;2023-04-27T03:27:10;99591.72;;;5.22;100.00
41264;BME280;26998;48.714;9.414;2023-04-27T03:29:37;99589.66;;;5.16;100.00
41264;BME280;26998;48.714;9.414;2023-04-27T03:32:04;99591.22;;;5.08;100.00
41264;BME280;26998;48.714;9.414;2023-04-27T03:34:33;99610.31;;;5.12;100.00
41264;BME280;26998;48.714;9.414;2023-04-27T03:37:00;99623.00;;;5.08;100.00
41264;BME280;26998;48.714;9.414;2023-04-27T03:39:27;99625.94;;;5.05;100.00
41264;BME280;26998;48.714;9.414;2023-04-27T03:41:53;99636.94;;;5.10;100.00
41264;BME280;26998;48.714;9.414;2023-04-27T03:44:19;99634.84;;;5.14;100.00
41264;BME280;26998;48.714;9.414;2023-04-27T03:46:46;99655.31;;;5.22;100.00
41264;BME280;26998;48.714;9.414;2023-04-27T03:49:13;99646.66;;;5.20;100.00
41264;BME280;26998;48.714;9.414;2023-04-27T03:51:40;99626.91;;;5.14;100.00
41264;BME280;26998;48.714;9.414;2023-04-27T03:54:07;99617.44;;;5.12;100.00
41264;BME280;26998;48.714;9.414;2023-04-27T03:56:33;99610.31;;;5.12;100.00
41264;BME280;26998;48.714;9.414;2023-04-27T03:59:00;99618.25;;;5.12;100.00
41264;BME280;26998;48.714;9.414;2023-04-27T04:01:26;99622.72;;;5.12;100.00
41264;BME280;26998;48.714;9.414;2023-04-27T04:03:53;99633.03;;;5.15;100.00
41264;BME280;26998;48.714;9.414;2023-04-27T04:06:20;99631.22;;;5.15;100.00
41264;BME280;26998;48.714;9.414;2023-04-27T04:08:46;99639.28;;;5.14;100.00
41264;BME280;26998;48.714;9.414;2023-04-27T04:11:13;99641.28;;;5.12;100.00
41264;BME280;26998;48.714;9.414;2023-04-27T04:13:39;99643.09;;;5.11;100.00
41264;BME280;26998;48.714;9.414;2023-04-27T04:16:08;99655.34;;;5.12;100.00
41264;BME280;26998;48.714;9.414;2023-04-27T04:18:35;99660.09;;;5.08;100.00
41264;BME280;26998;48.714;9.414;2023-04-27T04:21:02;99664.88;;;5.05;100.00
41264;BME280;26998;48.714;9.414;2023-04-27T04:23:28;99674.03;;;5.10;100.00
41264;BME280;26998;48.714;9.414;2023-04-27T04:25:55;99670.69;;;5.18;100.00
41264;BME280;26998;48.714;9.414;2023-04-27T04:28:22;99650.03;;;5.22;100.00
41264;BME280;26998;48.714;9.414;2023-04-27T04:30:49;99642.78;;;5.24;100.00
41264;BME280;26998;48.714;9.414;2023-04-27T04:33:17;99642.19;;;5.30;100.00
41264;BME280;26998;48.714;9.414;2023-04-27T04:35:43;99638.41;;;5.32;100.00
41264;BME280;26998;48.714;9.414;2023-04-27T04:38:10;99634.09;;;5.31;100.00
41264;BME280;26998;48.714;9.414;2023-04-27T04:40:37;99633.09;;;5.32;100.00
41264;BME280;26998;48.714;9.414;2023-04-27T04:43:04;99648.59;;;5.37;100.00
41264;BME280;26998;48.714;9.414;2023-04-27T04:45:31;99634.63;;;5.35;100.00
41264;BME280;26998;48.714;9.414;2023-04-27T04:47:57;99648.13;;;5.42;100.00
41264;BME280;26998;48.714;9.414;2023-04-27T04:50:24;99648.59;;;5.37;100.00
41264;BME280;26998;48.714;9.414;2023-04-27T04:52:50;99650.81;;;5.32;100.00
41264;BME280;26998;48.714;9.414;2023-04-27T04:55:17;99672.47;;;5.27;100.00
41264;BME280;26998;48.714;9.414;2023-04-27T04:57:44;99678.72;;;5.36;100.00
41264;BME280;26998;48.714;9.414;2023-04-27T05:00:10;99672.28;;;5.39;100.00
41264;BME280;26998;48.714;9.414;2023-04-27T05:02:38;99665.28;;;5.47;100.00
41264;BME280;26998;48.714;9.414;2023-04-27T05:05:06;99662.19;;;5.52;100.00
41264;BME280;26998;48.714;9.414;2023-04-27T05:07:33;99652.13;;;5.55;100.00
41264;BME280;26998;48.714;9.414;2023-04-27T05:10:00;99653.31;;;5.71;100.00
41264;BME280;26998;48.714;9.414;2023-04-27T05:12:26;99640.84;;;5.81;100.00
41264;BME280;26998;48.714;9.414;2023-04-27T05:14:53;99616.13;;;5.81;100.00
41264;BME280;26998;48.714;9.414;2023-04-27T05:17:19;99612.16;;;5.94;100.00
41264;BME280;26998;48.714;9.414;2023-04-27T05:19:46;99602.34;;;6.05;100.00
41264;BME280;26998;48.714;9.414;2023-04-27T05:22:12;99586.03;;;5.99;100.00
41264;BME280;26998;48.714;9.414;2023-04-27T05:24:39;99582.91;;;6.04;100.00
41264;BME280;26998;48.714;9.414;2023-04-27T05:27:05;99572.06;;;6.15;100.00
41264;BME280;26998;48.714;9.414;2023-04-27T05:29:31;99556.06;;;6.25;100.00
41264;BME280;26998;48.714;9.414;2023-04-27T05:31:58;99543.53;;;6.35;100.00
41264;BME280;26998;48.714;9.414;2023-04-27T05:34:24;99529.38;;;6.53;100.00
41264;BME280;26998;48.714;9.414;2023-04-27T05:36:51;99503.31;;;6.48;100.00
41264;BME280;26998;48.714;9.414;2023-04-27T05:39:17;99493.22;;;6.52;100.00
41264;BME280;26998;48.714;9.414;2023-04-27T05:41:44;99475.97;;;6.56;100.00
41264;BME280;26998;48.714;9.414;2023-04-27T05:44:10;99476.22;;;6.70;100.00
41264;BME280;26998;48.714;9.414;2023-04-27T05:46:37;99467.69;;;6.93;100.00
41264;BME280;26998;48.714;9.414;2023-04-27T05:49:04;99452.66;;;7.18;100.00
41264;BME280;26998;48.714;9.414;2023-04-27T05:51:31;99427.94;;;7.34;100.00
41264;BME280;26998;48.714;9.414;2023-04-27T05:53:58;99419.66;;;7.45;100.00
41264;BME280;26998;48.714;9.414;2023-04-27T05:56:25;99385.56;;;7.57;100.00
41264;BME280;26998;48.714;9.414;2023-04-27T05:58:51;99376.28;;;7.77;100.00
41264;BME280;26998;48.714;9.414;2023-04-27T06:01:18;99350.81;;;7.91;100.00
41264;BME280;26998;48.714;9.414;2023-04-27T06:03:45;99325.03;;;7.92;100.00
41264;BME280;26998;48.714;9.414;2023-04-27T06:06:12;99330.31;;;8.08;100.00
41264;BME280;26998;48.714;9.414;2023-04-27T06:08:39;99305.97;;;8.19;100.00
41264;BME280;26998;48.714;9.414;2023-04-27T06:11:05;99284.53;;;8.13;100.00
41264;BME280;26998;48.714;9.414;2023-04-27T06:13:31;99294.97;;;8.22;100.00
41264;BME280;26998;48.714;9.414;2023-04-27T06:15:59;99272.66;;;8.31;100.00
41264;BME280;26998;48.714;9.414;2023-04-27T06:18:30;99256.97;;;8.37;100.00
41264;BME280;26998;48.714;9.414;2023-04-27T06:21:00;99243.34;;;8.31;100.00
41264;BME280;26998;48.714;9.414;2023-04-27T06:23:27;99227.56;;;8.30;100.00
41264;BME280;26998;48.714;9.414;2023-04-27T06:26:00;99225.97;;;8.52;100.00
41264;BME280;26998;48.714;9.414;2023-04-27T06:28:27;99224.91;;;8.61;100.00
41264;BME280;26998;48.714;9.414;2023-04-27T06:30:54;99190.03;;;8.71;100.00
41264;BME280;26998;48.714;9.414;2023-04-27T06:33:20;99200.22;;;8.67;100.00
41264;BME280;26998;48.714;9.414;2023-04-27T06:35:48;99176.22;;;9.13;100.00
41264;BME280;26998;48.714;9.414;2023-04-27T06:38:14;99150.41;;;9.29;100.00
41264;BME280;26998;48.714;9.414;2023-04-27T06:40:41;99137.59;;;9.68;100.00
41264;BME280;26998;48.714;9.414;2023-04-27T06:43:07;99068.06;;;9.91;100.00
41264;BME280;26998;48.714;9.414;2023-04-27T06:45:34;99077.13;;;9.76;100.00
41264;BME280;26998;48.714;9.414;2023-04-27T06:48:01;99055.00;;;10.18;100.00
41264;BME280;26998;48.714;9.414;2023-04-27T06:50:28;99034.72;;;10.45;100.00
41264;BME280;26998;48.714;9.414;2023-04-27T06:52:54;99033.59;;;10.33;100.00
41264;BME280;26998;48.714;9.414;2023-04-27T06:55:21;99018.63;;;10.60;100.00
41264;BME280;26998;48.714;9.414;2023-04-27T06:57:47;99003.09;;;10.49;100.00
41264;BME280;26998;48.714;9.414;2023-04-27T07:00:14;99007.84;;;10.47;100.00
41264;BME280;26998;48.714;9.414;2023-04-27T07:02:41;99005.47;;;9.94;100.00
41264;BME280;26998;48.714;9.414;2023-04-27T07:05:07;99018.06;;;10.00;100.00
41264;BME280;26998;48.714;9.414;2023-04-27T07:07:34;99010.03;;;10.22;100.00
41264;BME280;26998;48.714;9.414;2023-04-27T07:10:00;99003.25;;;9.98;100.00
41264;BME280;26998;48.714;9.414;2023-04-27T07:12:27;98997.31;;;10.45;100.00
41264;BME280;26998;48.714;9.414;2023-04-27T07:14:53;98977.94;;;10.64;100.00
41264;BME280;26998;48.714;9.414;2023-04-27T07:17:20;98969.38;;;10.76;100.00
41264;BME280;26998;48.714;9.414;2023-04-27T07:19:46;98972.09;;;10.54;100.00
41264;BME280;26998;48.714;9.414;2023-04-27T07:22:13;98963.75;;;11.05;100.00
41264;BME280;26998;48.714;9.414;2023-04-27T07:24:39;98956.28;;;11.36;100.00
41264;BME280;26998;48.714;9.414;2023-04-27T07:27:06;98947.94;;;11.10;100.00
41264;BME280;26998;48.714;9.414;2023-04-27T07:29:32;98944.16;;;11.46;100.00
41264;BME280;26998;48.714;9.414;2023-04-27T07:31:59;98939.56;;;12.15;100.00
41264;BME280;26998;48.714;9.414;2023-04-27T07:34:27;98930.72;;;12.34;100.00
41264;BME280;26998;48.714;9.414;2023-04-27T07:37:06;98927.13;;;12.67;96.17
41264;BME280;26998;48.714;9.414;2023-04-27T07:39:33;98934.63;;;12.38;96.96
41264;BME280;26998;48.714;9.414;2023-04-27T07:42:02;98929.47;;;12.43;97.43
41264;BME280;26998;48.714;9.414;2023-04-27T07:44:29;98929.66;;;12.48;95.25
41264;BME280;26998;48.714;9.414;2023-04-27T07:46:55;98922.66;;;12.41;94.81
41264;BME280;26998;48.714;9.414;2023-04-27T07:49:22;98922.78;;;12.79;92.79
41264;BME280;26998;48.714;9.414;2023-04-27T07:51:49;98926.09;;;12.81;89.70
41264;BME280;26998;48.714;9.414;2023-04-27T07:54:15;98928.03;;;13.12;87.96
41264;BME280;26998;48.714;9.414;2023-04-27T07:56:42;98931.97;;;13.61;83.17
41264;BME280;26998;48.714;9.414;2023-04-27T07:59:10;98939.22;;;13.03;84.91
41264;BME280;26998;48.714;9.414;2023-04-27T08:01:37;98934.88;;;13.02;76.71
41264;BME280;26998;48.714;9.414;2023-04-27T08:04:04;98933.25;;;13.52;74.88
41264;BME280;26998;48.714;9.414;2023-04-27T08:06:31;98938.31;;;13.67;76.61
41264;BME280;26998;48.714;9.414;2023-04-27T08:08:58;98927.94;;;12.87;86.46
41264;BME280;26998;48.714;9.414;2023-04-27T08:11:25;98931.69;;;13.70;75.41
41264;BME280;26998;48.714;9.414;2023-04-27T08:13:52;98934.53;;;14.06;75.64
41264;BME280;26998;48.714;9.414;2023-04-27T08:16:18;98939.31;;;14.29;72.45
41264;BME280;26998;48.714;9.414;2023-04-27T08:18:45;98935.22;;;14.02;73.23
41264;BME280;26998;48.714;9.414;2023-04-27T08:21:12;98933.78;;;13.68;70.56
41264;BME280;26998;48.714;9.414;2023-04-27T08:23:38;98930.75;;;14.14;60.28
41264;BME280;26998;48.714;9.414;2023-04-27T08:26:05;98923.09;;;14.18;67.90
41264;BME280;26998;48.714;9.414;2023-04-27T08:28:31;98923.78;;;13.81;72.45
41264;BME280;26998;48.714;9.414;2023-04-27T08:30:58;98917.59;;;13.81;71.81
41264;BME280;26998;48.714;9.414;2023-04-27T08:33:24;98920.47;;;13.48;70.61
41264;BME280;26998;48.714;9.414;2023-04-27T08:35:54;98912.50;;;13.66;72.94
41264;BME280;26998;48.714;9.414;2023-04-27T08:38:20;98915.47;;;13.90;71.20
41264;BME280;26998;48.714;9.414;2023-04-27T08:40:50;98905.47;;;14.22;68.32
41264;BME280;26998;48.714;9.414;2023-04-27T08:43:17;98908.66;;;14.81;64.39
41264;BME280;26998;48.714;9.414;2023-04-27T08:45:48;98907.03;;;14.54;62.56
41264;BME280;26998;48.714;9.414;2023-04-27T08:48:14;98896.84;;;15.00;62.28
41264;BME280;26998;48.714;9.414;2023-04-27T08:50:43;98899.97;;;15.45;54.68
41264;BME280;26998;48.714;9.414;2023-04-27T08:53:19;98895.44;;;15.28;57.78
41264;BME280;26998;48.714;9.414;2023-04-27T08:55:47;98892.34;;;14.75;63.75
41264;BME280;26998;48.714;9.414;2023-04-27T08:58:13;98897.19;;;14.85;62.35
41264;BME280;26998;48.714;9.414;2023-04-27T09:00:41;98902.56;;;15.22;57.44
41264;BME280;26998;48.714;9.414;2023-04-27T09:03:21;98881.88;;;15.04;60.98
41264;BME280;26998;48.714;9.414;2023-04-27T09:05:48;98882.03;;;15.09;59.34
41264;BME280;26998;48.714;9.414;2023-04-27T09:08:48;98880.47;;;14.83;59.84
41264;BME280;26998;48.714;9.414;2023-04-27T09:11:30;98889.31;;;15.51;56.48
41264;BME280;26998;48.714;9.414;2023-04-27T09:13:58;98891.59;;;16.07;51.95
41264;BME280;26998;48.714;9.414;2023-04-27T09:16:26;98894.28;;;16.07;52.47
41264;BME280;26998;48.714;9.414;2023-04-27T09:18:54;98888.59;;;16.39;51.78
41264;BME280;26998;48.714;9.414;2023-04-27T09:21:25;98893.59;;;16.12;48.11
41264;BME280;26998;48.714;9.414;2023-04-27T09:23:53;98899.03;;;15.70;48.50
41264;BME280;26998;48.714;9.414;2023-04-27T09:26:21;98897.91;;;15.59;50.42
41264;BME280;26998;48.714;9.414;2023-04-27T09:28:50;98893.41;;;15.72;50.91
41264;BME280;26998;48.714;9.414;2023-04-27T09:31:17;98901.22;;;16.15;51.00
41264;BME280;26998;48.714;9.414;2023-04-27T09:33:45;98898.47;;;15.80;50.68
41264;BME280;26998;48.714;9.414;2023-04-27T09:36:12;98893.63;;;16.35;50.67
41264;BME280;26998;48.714;9.414;2023-04-27T09:38:39;98907.56;;;16.21;49.27
41264;BME280;26998;48.714;9.414;2023-04-27T09:41:06;98904.19;;;15.72;51.88
41264;BME280;26998;48.714;9.414;2023-04-27T09:43:33;98895.00;;;16.03;51.57
41264;BME280;26998;48.714;9.414;2023-04-27T09:46:03;98898.53;;;16.38;48.48
41264;BME280;26998;48.714;9.414;2023-04-27T09:48:30;98898.53;;;16.38;44.41
41264;BME280;26998;48.714;9.414;2023-04-27T09:50:58;98897.34;;;16.34;44.37
41264;BME280;26998;48.714;9.414;2023-04-27T09:53:45;98899.56;;;16.02;43.33
41264;BME280;26998;48.714;9.414;2023-04-27T09:56:25;98904.03;;;16.08;42.80
41264;BME280;26998;48.714;9.414;2023-04-27T09:59:17;98891.78;;;15.82;42.32
41264;BME280;26998;48.714;9.414;2023-04-27T10:01:54;98904.72;;;15.62;40.95
41264;BME280;26998;48.714;9.414;2023-04-27T10:07:26;98893.22;;;15.97;41.71
41264;BME280;26998;48.714;9.414;2023-04-27T10:09:53;98892.81;;;16.23;41.16
41264;BME280;26998;48.714;9.414;2023-04-27T10:12:27;98887.84;;;15.06;43.90
41264;BME280;26998;48.714;9.414;2023-04-27T10:14:58;98880.13;;;15.58;43.96
41264;BME280;26998;48.714;9.414;2023-04-27T10:17:32;98894.00;;;15.85;42.53
41264;BME280;26998;48.714;9.414;2023-04-27T10:20:05;98887.97;;;16.25;42.31
41264;BME280;26998;48.714;9.414;2023-04-27T10:22:43;98883.75;;;16.41;43.44
41264;BME280;26998;48.714;9.414;2023-04-27T10:25:29;98882.00;;;16.70;42.34
41264;BME280;26998;48.714;9.414;2023-04-27T10:28:02;98891.63;;;16.78;41.39
41264;BME280;26998;48.714;9.414;2023-04-27T10:30:34;98890.34;;;16.45;42.68
41264;BME280;26998;48.714;9.414;2023-04-27T10:33:09;98880.84;;;16.31;42.70
41264;BME280;26998;48.714;9.414;2023-04-27T10:35:41;98888.31;;;16.05;43.82
41264;BME280;26998;48.714;9.414;2023-04-27T10:38:16;98882.81;;;16.82;44.23
41264;BME280;26998;48.714;9.414;2023-04-27T10:40:45;98879.75;;;16.32;43.78
41264;BME280;26998;48.714;9.414;2023-04-27T10:43:23;98872.47;;;16.68;43.33
41264;BME280;26998;48.714;9.414;2023-04-27T10:45:50;98874.50;;;16.49;43.48
41264;BME280;26998;48.714;9.414;2023-04-27T10:48:17;98870.59;;;16.92;43.60
41264;BME280;26998;48.714;9.414;2023-04-27T10:50:43;98859.75;;;17.03;43.71
41264;BME280;26998;48.714;9.414;2023-04-27T10:53:10;98860.97;;;16.84;44.45
41264;BME280;26998;48.714;9.414;2023-04-27T10:55:37;98862.69;;;17.30;42.51
41264;BME280;26998;48.714;9.414;2023-04-27T10:58:04;98860.69;;;17.83;42.11
41264;BME280;26998;48.714;9.414;2023-04-27T11:03:15;98857.88;;;17.33;44.58
41264;BME280;26998;48.714;9.414;2023-04-27T11:05:43;98862.72;;;17.47;43.84
41264;BME280;26998;48.714;9.414;2023-04-27T11:08:12;98856.75;;;17.45;43.99
41264;BME280;26998;48.714;9.414;2023-04-27T11:10:42;98866.81;;;17.33;45.05
41264;BME280;26998;48.714;9.414;2023-04-27T11:13:11;98859.59;;;17.10;44.33
41264;BME280;26998;48.714;9.414;2023-04-27T11:15:54;98858.69;;;17.33;43.41
41264;BME280;26998;48.714;9.414;2023-04-27T11:18:24;98858.97;;;17.48;43.04
41264;BME280;26998;48.714;9.414;2023-04-27T11:20:53;98856.03;;;17.50;43.49
41264;BME280;26998;48.714;9.414;2023-04-27T11:23:28;98850.41;;;17.51;42.90
41264;BME280;26998;48.714;9.414;2023-04-27T11:25:55;98861.09;;;17.46;45.11
41264;BME280;26998;48.714;9.414;2023-04-27T11:28:22;98854.16;;;17.79;42.94
41264;BME280;26998;48.714;9.414;2023-04-27T11:30:56;98844.59;;;17.31;42.61
41264;BME280;26998;48.714;9.414;2023-04-27T11:33:23;98854.91;;;17.63;41.78
41264;BME280;26998;48.714;9.414;2023-04-27T11:35:50;98856.50;;;16.90;42.21
41264;BME280;26998;48.714;9.414;2023-04-27T11:38:17;98850.97;;;17.25;42.65
41264;BME280;26998;48.714;9.414;2023-04-27T11:41:02;98837.81;;;17.00;43.48
41264;BME280;26998;48.714;9.414;2023-04-27T11:43:29;98839.88;;;17.09;43.78
41264;BME280;26998;48.714;9.414;2023-04-27T11:45:57;98838.97;;;17.33;43.32
41264;BME280;26998;48.714;9.414;2023-04-27T11:48:24;98849.78;;;17.33;43.41
41264;BME280;26998;48.714;9.414;2023-04-27T11:50:52;98853.38;;;17.38;42.88
41264;BME280;26998;48.714;9.414;2023-04-27T11:53:28;98850.59;;;17.04;44.69
41264;BME280;26998;48.714;9.414;2023-04-27T11:55:55;98858.94;;;17.60;44.49
41264;BME280;26998;48.714;9.414;2023-04-27T11:58:22;98857.91;;;17.95;43.58
41264;BME280;26998;48.714;9.414;2023-04-27T12:00:49;98852.97;;;18.26;43.23
41264;BME280;26998;48.714;9.414;2023-04-27T12:03:16;98856.66;;;18.03;42.38
41264;BME280;26998;48.714;9.414;2023-04-27T12:05:50;98845.81;;;18.75;41.42
41264;BME280;26998;48.714;9.414;2023-04-27T12:08:17;98851.25;;;18.03;41.99
41264;BME280;26998;48.714;9.414;2023-04-27T12:10:46;98848.81;;;17.84;43.16
41264;BME280;26998;48.714;9.414;2023-04-27T12:13:12;98838.72;;;18.13;42.01
41264;BME280;26998;48.714;9.414;2023-04-27T12:15:40;98848.06;;;18.06;41.27
41264;BME280;26998;48.714;9.414;2023-04-27T12:18:07;98829.19;;;18.28;40.32
41264;BME280;26998;48.714;9.414;2023-04-27T12:20:33;98826.25;;;18.12;41.12
41264;BME280;26998;48.714;9.414;2023-04-27T12:23:00;98827.16;;;18.57;40.68
41264;BME280;26998;48.714;9.414;2023-04-27T12:25:27;98827.00;;;19.07;41.19
41264;BME280;26998;48.714;9.414;2023-04-27T12:27:54;98821.56;;;19.07;39.71
41264;BME280;26998;48.714;9.414;2023-04-27T12:30:22;98825.22;;;17.80;41.34
41264;BME280;26998;48.714;9.414;2023-04-27T12:32:48;98821.25;;;17.70;42.24
41264;BME280;26998;48.714;9.414;2023-04-27T12:35:14;98812.50;;;18.14;42.95
41264;BME280;26998;48.714;9.414;2023-04-27T12:37:41;98811.34;;;18.49;42.99
41264;BME280;26998;48.714;9.414;2023-04-27T12:40:08;98811.28;;;18.43;40.43
41264;BME280;26998;48.714;9.414;2023-04-27T12:42:35;98799.44;;;18.88;40.51
41264;BME280;26998;48.714;9.414;2023-04-27T12:45:02;98813.50;;;19.12;39.41
41264;BME280;26998;48.714;9.414;2023-04-27T12:47:28;98808.53;;;19.04;39.34
41264;BME280;26998;48.714;9.414;2023-04-27T12:50:14;98808.97;;;19.72;39.18
41264;BME280;26998;48.714;9.414;2023-04-27T12:52:41;98813.38;;;19.83;38.42
41264;BME280;26998;48.714;9.414;2023-04-27T12:55:08;98805.22;;;19.24;39.64
41264;BME280;26998;48.714;9.414;2023-04-27T12:57:43;98806.66;;;19.05;40.93
41264;BME280;26998;48.714;9.414;2023-04-27T13:00:10;98806.03;;;19.52;39.74
41264;BME280;26998;48.714;9.414;2023-04-27T13:02:37;98798.81;;;19.63;39.16
41264;BME280;26998;48.714;9.414;2023-04-27T13:05:03;98793.03;;;19.54;38.46
41264;BME280;26998;48.714;9.414;2023-04-27T13:07:30;98790.22;;;19.71;38.66
41264;BME280;26998;48.714;9.414;2023-04-27T13:09:57;98796.41;;;19.12;38.27